Time;durP1;ratioP1;P1;durP2;ratioP2;P2;SDS_P1;SDS_P2;PMS_P1;PMS_P2;Temp;Humidity;BMP_temperature;BMP_pressure;BME280_temperature;BME280_humidity;BME280_pressure;Samples;Min_cycle;Max_cycle;Signal;HPM_P1;HPM_P2
2022/07/18 00:02:10;;;;;;;;;5.75;5.75;;;;;28.04;27.19;101919.13;5074070;28;45436;-60
2022/07/18 00:04:36;;;;;;;;;7.00;6.00;;;;;27.99;27.85;101913.44;5074403;28;45412;-61
2022/07/18 00:07:02;;;;;;;;;7.25;6.25;;;;;27.91;27.83;101911.59;5071279;28;46125;-60
2022/07/18 00:09:28;;;;;;;;;6.75;4.75;;;;;27.86;27.84;101907.72;5072323;28;45337;-61
2022/07/18 00:11:53;;;;;;;;;4.00;4.00;;;;;27.78;27.56;101916.72;5074245;28;45405;-60
2022/07/18 00:14:21;;;;;;;;;10.00;7.00;;;;;27.73;27.89;101919.13;5074209;28;45472;-60
2022/07/18 00:16:47;;;;;;;;;8.50;7.00;;;;;27.68;27.88;101911.53;5071376;28;45393;-60
2022/07/18 00:19:13;;;;;;;;;9.50;5.75;;;;;27.65;28.17;101910.97;5072833;28;45388;-61
2022/07/18 00:21:38;;;;;;;;;8.25;6.75;;;;;27.63;28.15;101902.19;5070563;28;45631;-62
2022/07/18 00:24:04;;;;;;;;;6.50;5.00;;;;;27.61;28.11;101901.53;5071186;28;45514;-61
2022/07/18 00:26:29;;;;;;;;;8.75;6.75;;;;;27.58;28.23;101900.03;5072824;28;45474;-59
2022/07/18 00:28:55;;;;;;;;;10.75;7.00;;;;;27.55;28.50;101901.19;5062179;28;45517;-60
2022/07/18 00:31:20;;;;;;;;;8.25;6.25;;;;;27.53;28.19;101902.41;5063724;28;45302;-61
2022/07/18 00:33:46;;;;;;;;;7.00;7.00;;;;;27.47;28.47;101903.09;5061943;28;45365;-60
2022/07/18 00:36:12;;;;;;;;;9.75;7.00;;;;;27.43;28.56;101912.59;5063175;28;45941;-59
2022/07/18 00:38:37;;;;;;;;;6.25;6.00;;;;;27.40;28.62;101905.63;5063160;28;45208;-62
2022/07/18 00:41:03;;;;;;;;;10.00;8.00;;;;;27.40;28.68;101902.94;5063361;28;45213;-64
2022/07/18 00:43:29;;;;;;;;;8.75;6.25;;;;;27.39;28.82;101905.81;5063380;28;45351;-62
2022/07/18 00:45:54;;;;;;;;;7.00;7.00;;;;;27.36;28.69;101903.47;5062899;28;46493;-60
2022/07/18 00:48:20;;;;;;;;;8.25;8.25;;;;;27.33;28.71;101899.22;5063138;28;45255;-61
2022/07/18 00:50:46;;;;;;;;;11.00;9.25;;;;;27.29;29.04;101897.88;5063209;28;45276;-59
2022/07/18 00:53:12;;;;;;;;;9.00;8.00;;;;;27.23;28.93;101904.81;5062620;28;45394;-61
2022/07/18 00:55:41;;;;;;;;;8.50;6.50;;;;;27.18;29.19;101903.69;5062676;28;45403;-60
2022/07/18 00:58:08;;;;;;;;;7.75;6.00;;;;;27.15;29.39;101901.28;5063235;28;45347;-60
2022/07/18 01:03:18;;;;;;;;;8.00;7.25;;;;;27.19;29.32;101900.78;5062616;28;45322;-60
2022/07/18 01:05:43;;;;;;;;;6.25;6.25;;;;;27.21;29.21;101887.09;5061456;28;46095;-60
2022/07/18 01:08:09;;;;;;;;;10.00;7.25;;;;;27.21;29.84;101892.50;5063223;28;45386;-59
2022/07/18 01:10:34;;;;;;;;;9.50;6.50;;;;;27.18;29.25;101901.81;5062796;28;45442;-60
2022/07/18 01:13:00;;;;;;;;;6.25;6.00;;;;;27.16;29.39;101892.16;5067818;28;45255;-61
2022/07/18 01:15:26;;;;;;;;;9.50;8.25;;;;;27.12;29.91;101890.81;5062865;28;45379;-60
2022/07/18 01:17:51;;;;;;;;;12.00;7.25;;;;;27.11;29.73;101887.28;5061235;28;45359;-59
2022/07/18 01:20:17;;;;;;;;;12.50;9.00;;;;;27.08;29.73;101903.81;5062857;28;45397;-58
2022/07/18 01:22:43;;;;;;;;;8.25;7.25;;;;;27.03;29.78;101900.78;5062711;28;45455;-57
2022/07/18 01:25:10;;;;;;;;;9.25;7.50;;;;;26.97;29.78;101894.19;5062029;28;45362;-60
2022/07/18 01:27:36;;;;;;;;;8.00;8.00;;;;;26.97;29.71;101896.03;5078371;27;45344;-60
2022/07/18 01:30:03;;;;;;;;;8.25;8.25;;;;;26.91;29.77;101892.16;5074916;28;45219;-64
2022/07/18 01:32:28;;;;;;;;;10.25;8.25;;;;;26.84;29.50;101893.84;5082356;28;45437;-65
2022/07/18 01:34:54;;;;;;;;;9.25;7.00;;;;;26.81;29.74;101902.31;5082227;28;45525;-64
2022/07/18 01:37:19;;;;;;;;;6.50;6.25;;;;;26.79;29.55;101912.44;5083072;28;45380;-64
2022/07/18 01:39:45;;;;;;;;;6.50;6.50;;;;;26.80;29.50;101899.78;5082874;28;45344;-64
2022/07/18 01:42:13;;;;;;;;;7.00;7.00;;;;;26.78;29.49;101904.47;5083084;28;45474;-64
2022/07/18 01:44:39;;;;;;;;;8.50;6.00;;;;;26.77;29.52;101891.97;5082675;28;45372;-65
2022/07/18 01:47:07;;;;;;;;;8.25;7.00;;;;;26.76;29.81;101877.63;5082676;28;45501;-64
2022/07/18 01:49:33;;;;;;;;;9.25;7.00;;;;;26.76;29.89;101887.59;5081410;28;45445;-65
2022/07/18 01:51:59;;;;;;;;;9.25;7.25;;;;;26.75;29.94;101880.50;5082757;28;45443;-65
2022/07/18 01:54:27;;;;;;;;;8.00;8.00;;;;;26.71;30.02;101880.84;5062296;28;46133;-64
2022/07/18 01:56:53;;;;;;;;;8.50;8.25;;;;;26.67;29.86;101878.66;5074671;28;45311;-64
2022/07/18 01:59:19;;;;;;;;;3.50;3.50;;;;;26.63;29.96;101880.84;5082554;28;45418;-64
2022/07/18 02:01:45;;;;;;;;;8.00;5.00;;;;;26.60;29.90;101866.81;5082648;28;45516;-64
2022/07/18 02:04:11;;;;;;;;;7.00;7.00;;;;;26.57;30.26;101862.59;5082319;28;46472;-64
2022/07/18 02:06:37;;;;;;;;;7.25;7.25;;;;;26.55;30.28;101867.34;5082383;28;45222;-64
2022/07/18 02:09:04;;;;;;;;;9.25;9.25;;;;;26.52;30.36;101858.69;5082296;28;45321;-64
2022/07/18 02:11:30;;;;;;;;;10.00;8.00;;;;;26.46;30.49;101859.38;5082432;27;45248;-64
2022/07/18 02:13:55;;;;;;;;;10.75;10.00;;;;;26.39;30.75;101862.75;5062766;27;45325;-64
2022/07/18 02:16:21;;;;;;;;;10.50;10.25;;;;;26.34;30.49;101854.28;5061728;28;45322;-64
2022/07/18 02:18:46;;;;;;;;;9.75;8.75;;;;;26.32;30.62;101867.09;5061980;28;45516;-64
2022/07/18 02:21:13;;;;;;;;;11.50;8.00;;;;;26.33;31.05;101862.53;5062106;28;45340;-64
2022/07/18 02:23:40;;;;;;;;;7.50;6.00;;;;;26.29;30.98;101872.81;5061535;28;46242;-64
2022/07/18 02:26:06;;;;;;;;;8.50;8.00;;;;;26.27;30.75;101874.84;5061623;28;45339;-64
2022/07/18 02:28:32;;;;;;;;;10.75;8.00;;;;;26.25;30.97;101874.19;5061770;28;45438;-64
2022/07/18 02:30:57;;;;;;;;;8.25;6.25;;;;;26.23;30.77;101867.22;5061803;28;45272;-64
2022/07/18 02:33:23;;;;;;;;;10.75;9.00;;;;;26.21;30.76;101856.59;5061468;28;46198;-64
2022/07/18 02:35:48;;;;;;;;;10.00;9.00;;;;;26.22;31.05;101863.69;5061743;28;45390;-64
2022/07/18 02:38:14;;;;;;;;;11.50;8.50;;;;;26.20;30.96;101867.56;5061781;28;46494;-64
2022/07/18 02:40:39;;;;;;;;;9.25;8.50;;;;;26.17;30.77;101875.00;5061777;28;45504;-64
2022/07/18 02:43:05;;;;;;;;;9.00;8.00;;;;;26.14;30.95;101866.38;5061385;28;45893;-64
2022/07/18 02:45:30;;;;;;;;;10.50;9.25;;;;;26.10;31.03;101876.69;5061524;28;45347;-64
2022/07/18 02:47:56;;;;;;;;;8.75;8.00;;;;;26.06;30.92;101872.59;5061578;28;45378;-65
2022/07/18 02:50:21;;;;;;;;;12.75;9.50;;;;;26.03;31.16;101878.34;5061740;28;45442;-64
2022/07/18 02:52:48;;;;;;;;;12.25;10.00;;;;;26.01;31.40;101879.53;5061230;28;46650;-64
2022/07/18 02:55:14;;;;;;;;;11.25;9.00;;;;;25.96;31.32;101885.41;5061175;28;45316;-64
2022/07/18 02:57:40;;;;;;;;;10.75;8.00;;;;;25.91;31.71;101879.66;5061574;28;45317;-64
2022/07/18 03:00:09;;;;;;;;;8.00;6.50;;;;;25.87;31.58;101883.69;5061471;28;45633;-64
2022/07/18 03:02:35;;;;;;;;;12.00;10.25;;;;;25.81;31.50;101878.94;5060839;28;45345;-64
2022/07/18 03:05:01;;;;;;;;;10.75;10.00;;;;;25.79;31.45;101883.66;5061166;28;45367;-64
2022/07/18 03:07:26;;;;;;;;;13.75;10.00;;;;;25.78;31.53;101884.66;5061251;28;45408;-64
2022/07/18 03:09:52;;;;;;;;;12.00;10.50;;;;;25.76;31.64;101887.53;5061167;28;45412;-64
2022/07/18 03:12:18;;;;;;;;;12.50;10.00;;;;;25.74;32.16;101886.00;5065758;28;46289;-64
2022/07/18 03:14:43;;;;;;;;;11.00;10.00;;;;;25.73;32.11;101890.53;5061109;28;45328;-64
2022/07/18 03:17:09;;;;;;;;;11.50;8.75;;;;;25.71;31.96;101880.91;5061354;28;45450;-64
2022/07/18 03:19:35;;;;;;;;;10.75;8.75;;;;;25.68;32.00;101860.47;5061106;28;45315;-64
2022/07/18 03:22:01;;;;;;;;;8.50;8.50;;;;;25.68;32.37;101863.19;5060651;28;45474;-64
2022/07/18 03:24:27;;;;;;;;;11.50;9.00;;;;;25.67;32.32;101856.06;5060898;28;45253;-64
2022/07/18 03:26:52;;;;;;;;;6.75;5.75;;;;;25.62;32.01;101861.13;5060338;28;45427;-64
2022/07/18 03:29:18;;;;;;;;;10.00;10.00;;;;;25.57;32.29;101869.69;5060927;28;45244;-64
2022/07/18 03:31:43;;;;;;;;;14.25;10.00;;;;;25.54;32.29;101870.03;5060613;28;45270;-64
2022/07/18 03:34:09;;;;;;;;;13.00;9.75;;;;;25.52;32.37;101860.41;5061276;28;45488;-64
2022/07/18 03:36:34;;;;;;;;;11.50;11.25;;;;;25.51;32.24;101856.84;5060966;28;45548;-64
2022/07/18 03:39:00;;;;;;;;;10.75;9.50;;;;;25.52;32.88;101850.47;5060877;28;45328;-64
2022/07/18 03:41:26;;;;;;;;;14.25;11.00;;;;;25.54;32.88;101853.00;5060622;28;45178;-64
2022/07/18 03:43:51;;;;;;;;;11.00;11.00;;;;;25.54;32.48;101843.03;5059473;28;45418;-64
2022/07/18 03:46:17;;;;;;;;;9.50;9.50;;;;;25.53;32.30;101851.31;5060945;28;45328;-64
2022/07/18 03:48:42;;;;;;;;;12.00;11.25;;;;;25.53;32.22;101857.53;5060820;28;45672;-64
2022/07/18 03:51:08;;;;;;;;;13.75;10.00;;;;;25.51;32.42;101853.31;5060589;28;45282;-64
2022/07/18 03:53:33;;;;;;;;;10.75;10.00;;;;;25.49;32.43;101866.97;5060372;28;45291;-64
2022/07/18 03:55:59;;;;;;;;;11.00;9.00;;;;;25.48;32.57;101859.03;5060709;28;45231;-64
2022/07/18 03:58:25;;;;;;;;;13.75;11.50;;;;;25.48;33.13;101859.03;5060740;28;45435;-64
2022/07/18 04:00:50;;;;;;;;;11.25;10.75;;;;;25.48;32.38;101864.44;5060437;28;45333;-64
2022/07/18 04:03:17;;;;;;;;;13.25;12.00;;;;;25.46;32.83;101869.16;5060465;28;45397;-64
2022/07/18 04:05:42;;;;;;;;;14.50;13.25;;;;;25.42;32.69;101870.47;5060268;28;45235;-64
2022/07/18 04:08:08;;;;;;;;;13.00;12.00;;;;;25.38;32.71;101877.19;5060462;28;45273;-65
2022/07/18 04:10:33;;;;;;;;;13.50;12.25;;;;;25.34;33.19;101873.94;5060117;28;45912;-64
2022/07/18 04:12:59;;;;;;;;;16.25;14.75;;;;;25.31;33.09;101869.72;5066795;28;45481;-64
2022/07/18 04:15:25;;;;;;;;;20.25;14.25;;;;;25.29;33.28;101876.31;5060366;28;45271;-64
2022/07/18 04:17:52;;;;;;;;;14.75;14.00;;;;;25.26;32.67;101880.16;5060339;28;45604;-64
2022/07/18 04:20:20;;;;;;;;;16.00;15.75;;;;;25.19;33.25;101879.09;5060267;28;45442;-64
2022/07/18 04:22:47;;;;;;;;;19.25;18.00;;;;;25.15;33.20;101879.56;5060309;28;45304;-64
2022/07/18 04:25:13;;;;;;;;;20.25;16.75;;;;;25.10;33.30;101877.34;5059829;28;45172;-64
2022/07/18 04:27:39;;;;;;;;;17.00;13.75;;;;;25.07;32.73;101856.09;5060424;28;45488;-64
2022/07/18 04:30:05;;;;;;;;;22.25;15.75;;;;;25.05;32.86;101848.19;5060064;28;46106;-64
2022/07/18 04:32:31;;;;;;;;;15.75;15.50;;;;;25.08;33.19;101843.47;5060043;28;45334;-64
2022/07/18 04:34:56;;;;;;;;;17.25;16.25;;;;;25.08;32.96;101824.59;5060107;28;45350;-64
2022/07/18 04:37:21;;;;;;;;;18.25;16.25;;;;;25.08;33.38;101825.44;5060406;28;45306;-64
2022/07/18 04:39:47;;;;;;;;;17.50;15.50;;;;;25.08;33.24;101824.59;5062060;28;46104;-64
2022/07/18 04:42:12;;;;;;;;;16.50;15.25;;;;;25.07;33.06;101825.59;5063488;28;45271;-64
2022/07/18 04:44:38;;;;;;;;;14.25;14.25;;;;;25.07;33.01;101829.13;5063563;28;45252;-64
2022/07/18 04:47:03;;;;;;;;;21.75;17.25;;;;;25.07;33.72;101837.22;5063375;28;45474;-64
2022/07/18 04:49:28;;;;;;;;;14.50;13.25;;;;;25.05;33.83;101831.16;5063291;28;45429;-64
2022/07/18 04:51:54;;;;;;;;;14.25;12.00;;;;;25.06;33.73;101824.75;5063225;28;45318;-64
2022/07/18 04:54:19;;;;;;;;;18.75;13.75;;;;;25.09;33.39;101827.13;5062940;28;45245;-64
2022/07/18 04:56:45;;;;;;;;;15.50;14.25;;;;;25.12;33.81;101812.47;5063380;28;45355;-64
2022/07/18 04:59:11;;;;;;;;;19.00;15.25;;;;;25.13;33.81;101801.53;5063007;28;46061;-64
2022/07/18 05:01:36;;;;;;;;;26.25;16.75;;;;;25.14;33.78;101797.00;5063051;28;45279;-64
2022/07/18 05:04:02;;;;;;;;;16.50;13.50;;;;;25.09;34.25;101802.84;5063149;28;45197;-64
2022/07/18 05:06:28;;;;;;;;;17.50;15.25;;;;;25.04;34.05;101807.88;5063125;28;45327;-64
2022/07/18 05:08:53;;;;;;;;;16.50;14.50;;;;;25.04;33.85;101799.78;5062503;28;45949;-64
2022/07/18 05:11:19;;;;;;;;;12.75;9.75;;;;;25.04;34.08;101791.69;5065065;28;45364;-64
2022/07/18 05:13:44;;;;;;;;;16.75;14.00;;;;;25.04;34.06;101775.50;5065520;27;45564;-64
2022/07/18 05:16:10;;;;;;;;;17.50;15.00;;;;;25.02;34.28;101775.66;5062931;28;45453;-64
2022/07/18 05:18:35;;;;;;;;;17.50;15.75;;;;;24.99;34.29;101773.28;5062540;28;45482;-64
2022/07/18 05:21:01;;;;;;;;;15.50;14.75;;;;;24.97;34.54;101769.91;5062848;28;45399;-64
2022/07/18 05:23:26;;;;;;;;;18.00;16.00;;;;;24.96;34.50;101778.13;5062723;28;45328;-64
2022/07/18 05:25:51;;;;;;;;;17.75;15.00;;;;;24.97;34.82;101794.16;5062978;28;45450;-64
2022/07/18 05:28:17;;;;;;;;;11.00;10.75;;;;;25.00;34.82;101812.72;5062589;28;45742;-64
2022/07/18 05:30:43;;;;;;;;;12.25;12.00;;;;;25.08;34.36;101822.72;5062742;28;45267;-64
2022/07/18 05:33:08;;;;;;;;;15.50;14.25;;;;;25.17;34.24;101839.81;5062608;28;45418;-64
2022/07/18 05:35:34;;;;;;;;;14.00;13.50;;;;;25.24;34.46;101838.16;5062814;28;45288;-63
2022/07/18 05:37:59;;;;;;;;;14.00;11.75;;;;;25.27;34.27;101840.53;5062610;28;45279;-64
2022/07/18 05:40:24;;;;;;;;;14.25;14.00;;;;;25.29;34.12;101843.94;5062390;28;45235;-63
2022/07/18 05:42:50;;;;;;;;;10.00;10.00;;;;;25.26;34.01;101839.69;5064989;28;45311;-64
2022/07/18 05:45:15;;;;;;;;;15.25;12.50;;;;;25.29;34.08;101836.69;5074022;28;45328;-64
2022/07/18 05:47:41;;;;;;;;;14.75;12.25;;;;;25.33;33.87;101839.91;5062152;28;46171;-63
2022/07/18 05:50:08;;;;;;;;;14.50;12.75;;;;;25.34;33.88;101836.19;5061955;28;45267;-64
2022/07/18 05:52:33;;;;;;;;;12.25;11.00;;;;;25.34;34.34;101842.44;5062430;28;45235;-64
2022/07/18 05:54:59;;;;;;;;;19.25;13.50;;;;;25.39;33.94;101846.50;5062175;28;45311;-64
2022/07/18 05:57:24;;;;;;;;;11.75;11.50;;;;;25.45;33.93;101841.31;5062289;28;46172;-64
2022/07/18 05:59:50;;;;;;;;;15.25;13.00;;;;;25.49;33.97;101837.28;5062404;28;45321;-64
2022/07/18 06:02:15;;;;;;;;;15.25;12.50;;;;;25.55;33.91;101846.59;5062045;28;45708;-64
2022/07/18 06:04:41;;;;;;;;;12.00;11.50;;;;;25.60;34.20;101841.56;5062277;28;45458;-64
2022/07/18 06:07:07;;;;;;;;;13.00;11.25;;;;;25.63;34.11;101835.81;5061691;28;45441;-64
2022/07/18 06:09:32;;;;;;;;;10.50;8.75;;;;;25.72;34.76;101825.94;5061856;28;45314;-57
2022/07/18 06:11:59;;;;;;;;;10.50;8.00;;;;;25.89;34.95;101823.13;5067721;28;45476;-58
2022/07/18 06:14:28;;;;;;;;;13.00;11.00;;;;;26.04;35.36;101826.03;5062274;28;45488;-57
2022/07/18 06:16:54;;;;;;;;;11.50;10.00;;;;;26.16;35.47;101830.09;5062480;27;45261;-57
2022/07/18 06:19:19;;;;;;;;;14.25;9.25;;;;;26.23;35.35;101816.78;5075112;28;45535;-57
2022/07/18 06:21:45;;;;;;;;;10.75;10.25;;;;;26.31;35.51;101821.34;5077547;27;45451;-58
2022/07/18 06:24:11;;;;;;;;;9.00;9.00;;;;;26.43;35.64;101818.16;5068225;27;45227;-52
2022/07/18 06:26:36;;;;;;;;;13.00;10.75;;;;;26.50;35.02;101823.75;5072538;27;45392;-58
2022/07/18 06:29:02;;;;;;;;;12.75;9.25;;;;;26.58;35.02;101826.44;5071833;27;45252;-59
2022/07/18 06:31:28;;;;;;;;;13.75;8.50;;;;;26.66;34.53;101829.16;5074179;27;45321;-58
2022/07/18 06:33:54;;;;;;;;;10.00;9.25;;;;;26.75;34.85;101829.13;5069941;28;45349;-58
2022/07/18 06:36:23;;;;;;;;;14.00;10.25;;;;;26.82;34.44;101828.28;5072199;28;45484;-63
2022/07/18 06:38:50;;;;;;;;;8.50;8.25;;;;;26.89;34.62;101834.69;5067695;28;45224;-61
2022/07/18 06:41:16;;;;;;;;;10.25;9.00;;;;;26.97;34.53;101836.56;5068938;27;45342;-63
2022/07/18 06:43:42;;;;;;;;;14.25;10.75;;;;;27.02;34.52;101839.59;5070851;28;45342;-61
2022/07/18 06:46:07;;;;;;;;;9.75;9.50;;;;;27.11;34.43;101832.34;5066261;28;46341;-59
2022/07/18 06:48:33;;;;;;;;;7.25;7.00;;;;;27.18;34.52;101833.34;5060749;28;45299;-59
2022/07/18 06:51:01;;;;;;;;;16.00;9.00;;;;;27.22;34.00;101835.50;5061197;28;45639;-59
2022/07/18 06:53:27;;;;;;;;;9.25;8.25;;;;;27.26;34.07;101831.44;5060965;28;45436;-59
2022/07/18 06:55:53;;;;;;;;;9.00;8.25;;;;;27.25;33.88;101829.75;5060827;28;45519;-59
2022/07/18 06:58:19;;;;;;;;;11.25;10.75;;;;;27.32;33.89;101835.28;5065797;28;45895;-59
2022/07/18 07:00:44;;;;;;;;;14.75;10.00;;;;;27.39;33.89;101832.75;5067826;28;45537;-59
2022/07/18 07:03:09;;;;;;;;;14.75;11.25;;;;;27.46;33.97;101841.84;5063322;28;45461;-58
2022/07/18 07:05:35;;;;;;;;;14.75;10.25;;;;;27.50;33.74;101849.47;5067695;28;46063;-59
2022/07/18 07:08:00;;;;;;;;;10.25;8.75;;;;;27.58;33.96;101842.34;5065458;28;45496;-59
2022/07/18 07:10:26;;;;;;;;;14.50;9.75;;;;;27.64;33.86;101844.31;5066577;28;45497;-58
2022/07/18 07:12:51;;;;;;;;;12.50;10.50;;;;;27.70;33.62;101849.06;5067421;28;45554;-59
2022/07/18 07:15:20;;;;;;;;;9.00;8.25;;;;;27.74;33.46;101843.13;5066975;28;45794;-59
2022/07/18 07:17:45;;;;;;;;;11.75;9.00;;;;;27.80;33.51;101836.16;5064591;28;45394;-58
2022/07/18 07:20:12;;;;;;;;;14.00;9.25;;;;;27.84;33.45;101823.09;5066835;28;45629;-59
2022/07/18 07:22:45;;;;;;;;;10.25;9.75;;;;;27.90;33.09;101834.09;5066033;28;45485;-59
2022/07/18 07:25:11;;;;;;;;;12.25;10.25;;;;;27.95;33.07;101830.81;5065965;28;45518;-59
2022/07/18 07:27:36;;;;;;;;;10.00;9.00;;;;;27.99;32.65;101829.47;5065761;28;45585;-59
2022/07/18 07:30:03;;;;;;;;;8.25;7.25;;;;;28.05;32.99;101834.16;5069404;28;45776;-58
2022/07/18 07:32:28;;;;;;;;;8.25;8.00;;;;;28.08;32.55;101837.34;5062132;27;45594;-68
2022/07/18 07:34:54;;;;;;;;;8.75;7.50;;;;;28.07;31.93;101830.25;5060134;28;45483;-67
2022/07/18 07:37:19;;;;;;;;;12.25;8.25;;;;;28.08;31.89;101825.66;5060422;28;46512;-70
2022/07/18 07:39:44;;;;;;;;;9.00;8.00;;;;;28.06;31.37;101823.16;5060669;28;45520;-70
2022/07/18 07:42:10;;;;;;;;;10.75;8.25;;;;;28.12;31.33;101823.44;5060030;28;45351;-70
2022/07/18 07:44:35;;;;;;;;;11.50;10.25;;;;;28.16;31.32;101817.47;5066359;28;46526;-69
2022/07/18 07:47:01;;;;;;;;;8.00;6.25;;;;;28.17;31.22;101815.63;5066222;28;45489;-69
2022/07/18 07:49:26;;;;;;;;;10.50;7.50;;;;;28.20;31.39;101807.13;5065623;28;45773;-69
2022/07/18 07:51:52;;;;;;;;;14.25;9.50;;;;;28.27;30.97;101808.06;5068806;28;45519;-69
2022/07/18 07:54:17;;;;;;;;;8.25;6.25;;;;;28.32;31.02;101803.84;5068776;28;45531;-69
2022/07/18 07:56:42;;;;;;;;;8.25;6.75;;;;;28.34;30.81;101809.91;5068031;28;45598;-69
2022/07/18 07:59:08;;;;;;;;;8.50;8.00;;;;;28.39;30.69;101809.38;5066988;28;45519;-70
2022/07/18 08:01:33;;;;;;;;;11.25;9.00;;;;;28.44;31.13;101808.81;5066481;28;45788;-69
2022/07/18 08:03:59;;;;;;;;;12.50;8.50;;;;;28.49;30.59;101806.41;5066027;28;46334;-69
2022/07/18 08:06:24;;;;;;;;;13.50;11.50;;;;;28.56;30.61;101801.94;5066015;28;45809;-69
2022/07/18 08:08:50;;;;;;;;;16.00;11.00;;;;;28.60;30.91;101803.28;5066020;28;45465;-68
2022/07/18 08:11:15;;;;;;;;;10.50;8.75;;;;;28.68;30.85;101799.66;5066278;28;45502;-70
2022/07/18 08:13:41;;;;;;;;;12.75;10.50;;;;;28.74;30.73;101801.59;5065441;28;45570;-68
2022/07/18 08:16:06;;;;;;;;;10.50;9.50;;;;;28.81;30.52;101800.69;5073234;28;45405;-69
2022/07/18 08:18:32;;;;;;;;;11.00;10.25;;;;;28.89;30.74;101789.75;5071780;27;45382;-69
2022/07/18 08:20:57;;;;;;;;;9.50;9.25;;;;;28.98;30.83;101789.69;5072091;28;45339;-69
2022/07/18 08:23:23;;;;;;;;;8.00;8.00;;;;;29.06;30.15;101803.16;5070452;28;46061;-70
2022/07/18 08:25:48;;;;;;;;;13.75;8.50;;;;;29.09;30.43;101795.50;5067219;28;45512;-70
2022/07/18 08:28:14;;;;;;;;;10.00;7.75;;;;;29.14;30.09;101792.22;5070050;28;45683;-69
2022/07/18 08:30:40;;;;;;;;;7.75;6.50;;;;;29.18;30.07;101794.38;5068983;28;45745;-70
2022/07/18 08:33:07;;;;;;;;;9.50;7.75;;;;;29.26;30.24;101796.16;5069399;28;45703;-69
2022/07/18 08:35:33;;;;;;;;;13.25;10.25;;;;;29.33;29.87;101797.09;5069062;28;45494;-69
2022/07/18 08:37:59;;;;;;;;;8.25;7.00;;;;;29.41;30.27;101788.84;5072981;28;45439;-69
2022/07/18 08:40:25;;;;;;;;;9.25;6.00;;;;;29.47;29.58;101781.81;5071620;28;45603;-69
2022/07/18 08:42:53;;;;;;;;;10.00;6.75;;;;;29.54;29.64;101785.47;5070051;28;45477;-69
2022/07/18 08:45:21;;;;;;;;;7.25;7.25;;;;;29.60;29.86;101794.75;5066769;28;45475;-70
2022/07/18 08:47:51;;;;;;;;;11.25;7.75;;;;;29.67;29.40;101798.38;5069208;28;45874;-71
2022/07/18 08:50:16;;;;;;;;;9.25;6.50;;;;;29.76;29.44;101791.78;5073222;28;45770;-71
2022/07/18 08:52:43;;;;;;;;;10.75;7.00;;;;;29.86;28.98;101792.34;5070694;28;45438;-70
2022/07/18 08:55:09;;;;;;;;;8.00;5.75;;;;;29.94;28.58;101796.78;5070864;28;45419;-70
2022/07/18 08:57:35;;;;;;;;;7.50;5.00;;;;;30.00;29.34;101794.16;5076855;28;45504;-67
2022/07/18 09:00:06;;;;;;;;;7.00;6.25;;;;;30.06;28.91;101789.81;5070875;28;45957;-75
2022/07/18 09:02:31;;;;;;;;;7.25;5.25;;;;;30.12;28.81;101790.97;5070629;28;46074;-73
2022/07/18 09:05:00;;;;;;;;;8.50;6.00;;;;;30.19;28.52;101787.28;5067989;28;45705;-74
2022/07/18 09:07:29;;;;;;;;;8.25;5.25;;;;;30.29;28.62;101789.66;5069384;28;45382;-73
2022/07/18 09:09:57;;;;;;;;;4.25;4.25;;;;;30.36;28.16;101787.84;5066307;28;45628;-72
2022/07/18 09:12:25;;;;;;;;;5.75;5.75;;;;;30.43;28.11;101780.59;5070043;28;45624;-76
2022/07/18 09:14:51;;;;;;;;;7.00;5.00;;;;;30.46;28.60;101784.78;5068313;28;45508;-71
2022/07/18 09:17:22;;;;;;;;;5.50;5.00;;;;;30.52;28.34;101784.84;5068346;28;45508;-71
2022/07/18 09:20:23;;;;;;;;;7.50;5.00;;;;;30.62;28.14;101789.09;5070653;28;45525;-70
2022/07/18 09:22:49;;;;;;;;;12.25;11.75;;;;;30.66;27.77;101791.25;5020015;28;46142;-71
2022/07/18 09:25:20;;;;;;;;;17.50;16.25;;;;;30.75;28.16;101795.50;5057899;28;45719;-71
2022/07/18 09:27:49;;;;;;;;;7.75;7.75;;;;;30.83;27.97;101794.53;5066699;28;45588;-70
2022/07/18 09:30:15;;;;;;;;;5.00;4.50;;;;;30.91;27.92;101799.81;5068102;28;45633;-71
2022/07/18 09:32:42;;;;;;;;;5.25;5.00;;;;;30.98;27.75;101797.13;5066624;28;46119;-71
2022/07/18 09:35:12;;;;;;;;;8.25;5.25;;;;;31.04;27.83;101797.16;5068782;28;45703;-70
2022/07/18 09:37:41;;;;;;;;;7.25;5.25;;;;;31.12;27.44;101791.56;5068985;28;45509;-70
2022/07/18 09:40:18;;;;;;;;;7.00;6.25;;;;;31.18;27.03;101792.63;5070128;28;45536;-78
2022/07/18 09:42:52;;;;;;;;;7.75;5.75;;;;;31.23;27.02;101792.91;5071734;28;45961;-73
2022/07/18 09:45:30;;;;;;;;;6.50;5.50;;;;;31.31;26.81;101792.75;5067423;28;45450;-73
2022/07/18 09:48:01;;;;;;;;;4.75;4.75;;;;;31.42;27.11;101795.91;5067752;28;45513;-75
2022/07/18 09:50:32;;;;;;;;;4.00;4.00;;;;;31.51;26.64;101800.97;5069772;28;45331;-74
2022/07/18 09:53:01;;;;;;;;;5.50;4.25;;;;;31.60;26.67;101791.63;5067356;28;46579;-75
2022/07/18 09:55:26;;;;;;;;;5.50;5.00;;;;;31.68;26.69;101788.72;5068697;28;45582;-65
2022/07/18 09:58:08;;;;;;;;;4.00;4.00;;;;;31.78;26.62;101791.06;5068424;28;45443;-64
2022/07/18 10:00:35;;;;;;;;;6.00;5.00;;;;;31.85;26.35;101783.75;5073207;28;45804;-64
2022/07/18 10:03:03;;;;;;;;;7.00;5.75;;;;;31.94;26.07;101785.22;5069513;28;46287;-63
2022/07/18 10:05:31;;;;;;;;;8.75;7.00;;;;;32.05;26.31;101780.22;5069394;28;45592;-64
2022/07/18 10:07:58;;;;;;;;;7.00;6.50;;;;;32.13;25.76;101780.84;5067052;28;45500;-65
2022/07/18 10:10:27;;;;;;;;;7.50;6.50;;;;;32.26;26.05;101776.47;5068361;28;46182;-66
2022/07/18 10:12:58;;;;;;;;;6.00;6.00;;;;;32.35;25.43;101778.81;5065196;28;46080;-66
2022/07/18 10:15:26;;;;;;;;;13.00;6.00;;;;;32.44;25.76;101769.34;5068698;28;45535;-67
2022/07/18 10:17:52;;;;;;;;;5.50;5.50;;;;;32.49;25.62;101766.84;5065645;27;45564;-64
2022/07/18 10:20:24;;;;;;;;;7.00;7.00;;;;;32.60;26.03;101772.69;5068154;28;45539;-64
2022/07/18 10:22:52;;;;;;;;;8.25;5.50;;;;;32.66;25.78;101764.50;5065740;28;45458;-65
2022/07/18 10:25:21;;;;;;;;;7.25;7.00;;;;;32.77;25.20;101765.75;5073457;28;45500;-66
2022/07/18 10:28:10;;;;;;;;;8.75;6.75;;;;;32.83;25.68;101772.25;5067872;28;45445;-66
2022/07/18 10:30:43;;;;;;;;;9.75;7.50;;;;;32.88;25.87;101764.31;5067115;28;45540;-64
2022/07/18 10:33:40;;;;;;;;;6.50;6.00;;;;;32.89;25.48;101758.63;5066838;28;45505;-67
2022/07/18 10:36:17;;;;;;;;;6.00;6.00;;;;;32.94;25.48;101758.84;5058768;28;45573;-65
2022/07/18 10:39:06;;;;;;;;;6.25;6.25;;;;;33.01;24.74;101759.63;5066070;28;45303;-67
2022/07/18 10:41:33;;;;;;;;;6.00;6.00;;;;;33.09;24.96;101752.25;5069732;28;45635;-66
2022/07/18 10:43:58;;;;;;;;;8.50;7.00;;;;;33.14;24.84;101755.19;5066790;28;45805;-67
2022/07/18 10:46:24;;;;;;;;;6.50;6.00;;;;;33.17;24.55;101755.59;5070130;28;45571;-67
2022/07/18 10:48:52;;;;;;;;;8.25;6.25;;;;;33.26;24.18;101748.84;5069620;28;45552;-65
2022/07/18 10:51:18;;;;;;;;;8.50;7.25;;;;;33.33;24.74;101744.16;5068992;28;45742;-64
2022/07/18 10:53:53;;;;;;;;;5.50;5.25;;;;;33.41;23.83;101755.94;5064889;28;45752;-65
2022/07/18 10:56:19;;;;;;;;;7.75;7.75;;;;;33.45;23.82;101752.56;5067478;28;45655;-67
2022/07/18 10:58:45;;;;;;;;;11.00;6.75;;;;;33.53;24.15;101759.69;5069882;28;45469;-65
2022/07/18 11:01:16;;;;;;;;;4.75;4.75;;;;;33.60;24.44;101755.84;5067948;28;45507;-65
2022/07/18 11:03:42;;;;;;;;;7.50;6.75;;;;;33.65;23.57;101752.44;5068641;28;45449;-66
2022/07/18 11:06:08;;;;;;;;;4.25;4.25;;;;;33.74;23.06;101744.84;5065667;28;45567;-65
2022/07/18 11:08:33;;;;;;;;;6.50;6.50;;;;;33.77;23.42;101747.13;5066768;28;45457;-64
2022/07/18 11:11:01;;;;;;;;;8.50;7.25;;;;;33.77;23.46;101742.50;5066508;28;45493;-66
2022/07/18 11:13:31;;;;;;;;;7.50;7.00;;;;;33.83;23.01;101743.53;5067381;28;45483;-72
2022/07/18 11:16:12;;;;;;;;;6.50;5.00;;;;;33.93;23.83;101738.44;5066491;28;45379;-72
2022/07/18 11:18:44;;;;;;;;;10.25;8.50;;;;;34.04;22.98;101743.16;5068615;28;45434;-72
2022/07/18 11:21:15;;;;;;;;;5.00;4.25;;;;;34.14;23.18;101740.81;5069879;28;45441;-73